Petersburg, AK

7:42 PM AKDT on September 21, 2014 (GMT -0800)
Johnson Petersburg | Change Station
CLOSE
Current Station
Airport
Location: Petersburg,
Elevation: 0 ft
Nearby Weather Stations

Elev 0 ft 56.82 °N, 132.97 °W | Updated 6 minutes ago

Overcast
Overcast
55 °F
Feels Like 55 °F
N
5
Wind Variable Wind from East

Today
High -- | Low -- °F
--% Chance of Precip.
Yesterday
High -- | Low -- °F
Precip. -- in
6:36 AM 6:54 PM
Waning Crescent, 4% visible
Pressure 29.52 in
Visibility 10.0 miles
Clouds Few 1700 ft
Mostly Cloudy 3200 ft
Overcast 6000 ft
Dew Point 50 °F
Humidity 82%
Rainfall 0.32 in
Snow Depth 1 in , 0 in , 0 in
UV 0 out of 12
Pollen Not available.
Air Quality Not available.
Flu Activity Not available.
METAR PAPG 220336Z 10004KT 10SM FEW017 BKN032 OVC060 13/10 A2952 RMK AO1 WEA: -RA

More Conditions Fewer Conditions

Pressure 29.52 in
Visibility 10.0 miles
Clouds Few 1700 ft
Mostly Cloudy 3200 ft
Overcast 6000 ft
Dew Point 50 °F
Humidity 82%
Rainfall 0.32 in
Snow Depth 1 in , 0 in , 0 in
UV 0 out of 12
Pollen Not available.
Air Quality Not available.
Flu Activity Not available.
METAR PAPG 220336Z 10004KT 10SM FEW017 BKN032 OVC060 13/10 A2952 RMK AO1 WEA: -RA

More Conditions Fewer Conditions

10-Day Weather Forecast

Almanac

Astronomy

Sep. 21, 2014 Rise Set
Actual Time 6:36 AM AKDT 6:54 PM AKDT
Civil Twilight 5:58 AM AKDT 7:32 PM AKDT
Nautical Twilight 5:12 AM AKDT 8:17 PM AKDT
Astronomical Twilight 4:23 AM AKDT 9:06 PM AKDT
Moon 3:56 AM AKDT (9/21) 5:49 PM AKDT (9/21)
Length of Visible Light 13h 34m
Length of Day
12h 17m
Tomorrow will be 4m 46s shorter.
Waning Crescent, 4% of the Moon is Illuminated
Today
Waning Crescent
Sep 24
New
Oct 1
First Quarter
Oct 8
Full
Oct 15
Last Quarter

Today's Extremes

State Highs State Lows

Community

WunderPhotos

Upload Photos

1,755,382 photos uploaded!

WunderBlogs® & News

Nearby

Snow Depth

Station Depth Elevation
Point Mackenzie 1 in 200 ft
Grouse Creek Divide 0 in 700 ft
Granite Creek 0 in 1240 ft
Moraine 0 in 2100 ft
Cooper Lake 26 in 1200 ft

Earthquake Activity

City Distance Mag. Time & Date
No recent earthquake activity has been reported nearby.
Minimum magnitude displayed is 2.5.

Coastal Water Temperatures

Place Temperature
No Stations Reporting

Nearby Weather Stations